createdAt,value
2022-10-06T00:00:38.460Z,31.50
2022-10-06T00:03:05.140Z,31.15
2022-10-06T00:05:31.783Z,30.85
2022-10-06T00:07:58.835Z,25.90
2022-10-06T00:10:25.335Z,36.47
2022-10-06T00:12:52.789Z,33.75
2022-10-06T00:15:23.083Z,29.58
2022-10-06T00:17:51.015Z,31.88
2022-10-06T00:20:18.086Z,30.73
2022-10-06T00:22:47.359Z,26.48
2022-10-06T00:25:16.573Z,29.95
2022-10-06T00:27:47.207Z,28.20
2022-10-06T00:30:19.572Z,28.80
2022-10-06T00:33:03.097Z,27.33
2022-10-06T00:35:33.585Z,30.48
2022-10-06T00:38:01.320Z,30.55
2022-10-06T00:40:28.721Z,30.40
2022-10-06T00:43:03.594Z,28.98
2022-10-06T00:45:48.224Z,25.67
2022-10-06T00:48:32.399Z,26.67
2022-10-06T00:50:59.572Z,33.78
2022-10-06T00:53:31.870Z,29.40
2022-10-06T00:55:58.558Z,24.00
2022-10-06T00:58:25.539Z,36.42
2022-10-06T01:00:54.685Z,26.10
2022-10-06T01:03:24.017Z,32.03
2022-10-06T01:05:51.896Z,30.40
2022-10-06T01:08:19.254Z,25.67
2022-10-06T01:10:45.939Z,30.45
2022-10-06T01:13:14.155Z,28.33
2022-10-06T01:15:47.832Z,31.75
2022-10-06T01:18:18.640Z,33.15
2022-10-06T01:20:58.702Z,33.28
2022-10-06T01:23:25.798Z,31.63
2022-10-06T01:25:52.970Z,24.42
2022-10-06T01:28:19.773Z,27.33
2022-10-06T01:30:52.712Z,36.35
2022-10-06T01:33:20.833Z,32.00
2022-10-06T01:35:51.104Z,33.70
2022-10-06T01:38:18.537Z,26.25
2022-10-06T01:40:46.041Z,28.38
2022-10-06T01:43:12.616Z,29.05
2022-10-06T01:45:39.219Z,30.95
2022-10-06T01:48:06.932Z,32.97
2022-10-06T01:50:33.513Z,30.65
2022-10-06T01:53:00.046Z,26.42
2022-10-06T01:55:27.240Z,33.25
2022-10-06T01:57:53.913Z,29.52
2022-10-06T02:00:20.465Z,36.60
2022-10-06T02:02:47.167Z,32.50
2022-10-06T02:05:14.765Z,27.15
2022-10-06T02:07:41.435Z,33.05
2022-10-06T02:10:08.386Z,30.20
2022-10-06T02:12:35.150Z,39.33
2022-10-06T02:15:02.341Z,35.05
2022-10-06T02:17:29.397Z,32.95
2022-10-06T02:19:56.050Z,32.10
2022-10-06T02:22:22.656Z,27.95
2022-10-06T02:24:49.349Z,25.15
2022-10-06T02:27:15.963Z,28.60
2022-10-06T02:29:42.531Z,36.75
2022-10-06T02:32:09.093Z,33.08
2022-10-06T02:34:35.649Z,37.15
2022-10-06T02:37:02.237Z,38.80
2022-10-06T02:39:28.824Z,34.50
2022-10-06T02:41:55.793Z,38.63
2022-10-06T02:44:23.245Z,41.70
2022-10-06T02:46:50.005Z,33.80
2022-10-06T02:49:16.732Z,39.67
2022-10-06T02:51:43.265Z,36.55
2022-10-06T02:54:10.016Z,45.58
2022-10-06T02:56:37.975Z,34.90
2022-10-06T02:59:04.520Z,42.17
2022-10-06T03:01:31.205Z,53.42
2022-10-06T03:03:57.851Z,37.83
2022-10-06T03:06:29.991Z,46.92
2022-10-06T03:09:02.168Z,40.85
2022-10-06T03:11:33.965Z,43.65
2022-10-06T03:14:00.991Z,45.63
2022-10-06T03:16:36.086Z,50.08
2022-10-06T03:19:03.573Z,41.60
2022-10-06T03:21:32.135Z,44.80
2022-10-06T03:23:59.448Z,40.17
2022-10-06T03:26:28.867Z,49.10
2022-10-06T03:28:56.426Z,45.20
2022-10-06T03:31:23.785Z,44.92
2022-10-06T03:33:51.370Z,40.90
2022-10-06T03:36:20.390Z,45.17
2022-10-06T03:38:47.472Z,52.35
2022-10-06T03:41:16.933Z,42.20
2022-10-06T03:43:45.554Z,43.85
2022-10-06T03:46:14.385Z,42.70
2022-10-06T03:51:11.704Z,46.70
2022-10-06T03:53:38.996Z,43.15
2022-10-06T03:56:10.936Z,49.00
2022-10-06T03:58:41.145Z,41.47
2022-10-06T04:01:12.090Z,45.25
2022-10-06T04:03:38.690Z,45.47
2022-10-06T04:06:07.250Z,53.78
2022-10-06T04:08:35.253Z,39.42
2022-10-06T04:11:23.631Z,46.23
2022-10-06T04:13:56.733Z,45.65
2022-10-06T04:16:26.373Z,55.95
2022-10-06T04:18:55.105Z,41.55
2022-10-06T04:21:22.580Z,54.20
2022-10-06T04:23:49.437Z,44.35
2022-10-06T04:26:18.525Z,50.30
2022-10-06T04:28:46.170Z,42.75
2022-10-06T04:31:24.759Z,44.33
2022-10-06T04:33:53.820Z,52.42
2022-10-06T04:36:26.768Z,47.15
2022-10-06T04:38:58.901Z,46.72
2022-10-06T04:41:33.661Z,44.75
2022-10-06T04:44:00.986Z,43.88
2022-10-06T04:46:42.548Z,48.42
2022-10-06T04:49:13.396Z,48.30
2022-10-06T04:51:44.579Z,49.08
2022-10-06T04:54:11.396Z,43.85
2022-10-06T04:56:38.036Z,47.65
2022-10-06T04:59:04.601Z,50.70
2022-10-06T05:01:36.774Z,48.28
2022-10-06T05:04:06.090Z,47.90
2022-10-06T05:06:41.503Z,50.92
2022-10-06T05:09:13.505Z,49.70
2022-10-06T05:11:40.398Z,45.97
2022-10-06T05:14:07.460Z,41.88
2022-10-06T05:16:34.609Z,49.90
2022-10-06T05:19:01.338Z,45.45
2022-10-06T05:21:30.012Z,35.80
2022-10-06T05:23:56.992Z,46.47
2022-10-06T05:26:27.227Z,34.10
2022-10-06T05:28:53.840Z,39.75
2022-10-06T05:31:23.458Z,46.75
2022-10-06T05:33:50.154Z,47.75
2022-10-06T05:36:18.986Z,49.30
2022-10-06T05:41:21.317Z,49.78
2022-10-06T05:43:48.444Z,44.90
2022-10-06T05:46:20.387Z,50.30
2022-10-06T05:48:49.317Z,49.13
2022-10-06T05:53:43.961Z,44.13
2022-10-06T05:56:43.596Z,47.72
2022-10-06T05:59:10.171Z,46.15
2022-10-06T06:01:41.552Z,41.38
2022-10-06T06:04:11.500Z,48.28
2022-10-06T06:06:40.524Z,49.92
2022-10-06T06:09:09.606Z,46.42
2022-10-06T06:11:41.863Z,41.15
2022-10-06T06:14:11.329Z,44.00
2022-10-06T06:16:39.836Z,46.13
2022-10-06T06:19:08.185Z,42.40
2022-10-06T06:21:34.796Z,44.28
2022-10-06T06:24:02.843Z,39.72
2022-10-06T06:26:33.211Z,48.17
2022-10-06T06:29:03.964Z,41.92
2022-10-06T06:31:33.315Z,46.22
2022-10-06T06:34:02.207Z,38.13
2022-10-06T06:38:58.225Z,33.90
2022-10-06T06:41:29.904Z,34.80
2022-10-06T06:43:58.123Z,37.35
2022-10-06T06:46:27.590Z,34.53
2022-10-06T06:48:55.751Z,38.03
2022-10-06T06:51:25.921Z,33.03
2022-10-06T06:53:53.313Z,31.20
2022-10-06T06:56:22.096Z,34.38
2022-10-06T06:58:49.113Z,36.75
2022-10-06T07:01:20.463Z,31.17
2022-10-06T07:03:57.608Z,34.10
2022-10-06T07:06:28.705Z,35.72
2022-10-06T07:08:57.272Z,34.45
2022-10-06T07:11:25.836Z,29.27
2022-10-06T07:14:06.866Z,31.67
2022-10-06T07:16:52.001Z,30.45
2022-10-06T07:19:39.630Z,30.20
2022-10-06T07:22:27.599Z,31.67
2022-10-06T07:25:08.023Z,34.40
2022-10-06T07:27:42.555Z,32.10
2022-10-06T07:30:20.366Z,34.53
2022-10-06T07:32:50.423Z,29.85
2022-10-06T07:35:21.508Z,36.35
2022-10-06T07:37:49.915Z,32.08
2022-10-06T07:40:17.354Z,29.85
2022-10-06T07:42:51.962Z,32.30
2022-10-06T07:45:39.075Z,30.92
2022-10-06T07:48:11.102Z,28.07
2022-10-06T07:50:39.677Z,27.45
2022-10-06T07:53:09.764Z,30.17
2022-10-06T07:55:40.251Z,32.40
2022-10-06T07:58:10.754Z,27.85
2022-10-06T08:00:37.637Z,27.95
2022-10-06T08:03:04.341Z,24.70
2022-10-06T08:05:32.362Z,25.05
2022-10-06T08:10:25.802Z,28.75
2022-10-06T08:12:52.426Z,26.30
2022-10-06T08:15:19.501Z,25.17
2022-10-06T08:17:46.277Z,26.63
2022-10-06T08:21:05.491Z,28.38
2022-10-06T08:23:32.114Z,25.55
2022-10-06T08:25:58.619Z,25.20
2022-10-06T08:28:25.254Z,28.95
2022-10-06T08:30:52.481Z,27.35
2022-10-06T08:33:21.573Z,23.50
2022-10-06T08:35:48.428Z,30.13
2022-10-06T08:38:15.227Z,25.67
2022-10-06T08:40:44.128Z,26.00
2022-10-06T08:43:18.998Z,26.63
2022-10-06T08:45:47.661Z,26.17
2022-10-06T08:48:20.409Z,23.50
2022-10-06T08:51:00.786Z,27.52
2022-10-06T08:53:30.390Z,23.20
2022-10-06T08:56:28.058Z,29.83
2022-10-06T08:58:58.457Z,27.10
2022-10-06T09:01:28.362Z,26.88
2022-10-06T09:04:01.656Z,28.80
2022-10-06T09:06:31.539Z,26.33
2022-10-06T09:09:06.819Z,24.45
2022-10-06T09:12:18.400Z,29.52
2022-10-06T09:15:03.363Z,30.13
2022-10-06T09:17:38.932Z,26.67
2022-10-06T09:20:17.696Z,25.88
2022-10-06T09:22:46.166Z,29.25
2022-10-06T09:25:20.346Z,21.95
2022-10-06T09:27:54.036Z,21.95
2022-10-06T09:30:20.765Z,22.05
2022-10-06T09:32:53.863Z,24.10
2022-10-06T09:35:23.704Z,22.00
2022-10-06T09:38:08.658Z,22.42
2022-10-06T09:40:51.886Z,20.15
2022-10-06T09:43:29.607Z,21.52
2022-10-06T09:46:28.510Z,24.33
2022-10-06T09:49:17.363Z,23.48
2022-10-06T09:52:15.049Z,25.02
2022-10-06T09:54:45.184Z,26.67
2022-10-06T09:57:19.881Z,25.38
2022-10-06T09:59:47.921Z,20.85
2022-10-06T10:04:55.455Z,24.35
2022-10-06T10:07:27.724Z,23.17
2022-10-06T10:10:12.657Z,27.23
2022-10-06T10:12:53.403Z,23.60
2022-10-06T10:15:19.907Z,22.17
2022-10-06T10:17:51.409Z,24.67
2022-10-06T10:20:50.811Z,24.95
2022-10-06T10:23:31.680Z,21.83
2022-10-06T10:26:13.670Z,23.67
2022-10-06T10:28:55.614Z,22.63
2022-10-06T10:31:43.544Z,23.13
2022-10-06T10:34:24.398Z,23.42
2022-10-06T10:36:57.652Z,26.52
2022-10-06T10:39:33.615Z,26.25
2022-10-06T10:42:05.053Z,27.02
2022-10-06T10:44:41.337Z,24.40
2022-10-06T10:47:25.542Z,24.95
2022-10-06T10:50:03.037Z,20.55
2022-10-06T10:52:35.959Z,28.85
2022-10-06T10:55:34.176Z,30.50
2022-10-06T10:58:11.275Z,24.00
2022-10-06T11:00:43.225Z,25.10
2022-10-06T11:03:11.655Z,22.85
2022-10-06T11:05:59.380Z,26.65
2022-10-06T11:08:39.760Z,21.00
2022-10-06T11:11:21.341Z,29.13
2022-10-06T11:13:52.450Z,21.33
2022-10-06T11:16:40.778Z,23.45
2022-10-06T11:19:44.666Z,22.88
2022-10-06T11:22:44.983Z,23.63
2022-10-06T11:25:45.265Z,26.23
2022-10-06T11:28:43.476Z,21.20
2022-10-06T11:31:34.306Z,24.10
2022-10-06T11:34:03.741Z,25.08
2022-10-06T11:36:45.447Z,25.17
2022-10-06T11:39:24.708Z,23.90
2022-10-06T11:42:20.473Z,27.95
2022-10-06T11:44:55.065Z,23.98
2022-10-06T11:47:35.401Z,23.90
2022-10-06T11:50:22.887Z,23.42
2022-10-06T11:52:52.680Z,24.77
2022-10-06T11:55:24.077Z,25.77
2022-10-06T11:58:37.466Z,29.38
2022-10-06T12:01:00.042Z,22.02
2022-10-06T12:03:31.033Z,24.25
2022-10-06T12:05:59.910Z,27.38
2022-10-06T12:08:43.969Z,23.30
2022-10-06T12:11:39.099Z,23.92
2022-10-06T12:16:00.203Z,27.63
2022-10-06T12:17:32.241Z,24.67
2022-10-06T12:20:25.825Z,26.13
2022-10-06T12:22:59.163Z,27.58
2022-10-06T12:25:35.984Z,27.63
2022-10-06T12:28:37.553Z,26.83
2022-10-06T12:31:23.123Z,26.45
2022-10-06T12:39:29.643Z,24.00
2022-10-06T12:42:06.636Z,22.83
2022-10-06T12:44:45.686Z,19.05
2022-10-06T12:47:37.595Z,27.40
2022-10-06T12:50:25.889Z,21.60
2022-10-06T12:53:16.210Z,25.60
2022-10-06T12:55:53.850Z,25.25
2022-10-06T12:58:29.129Z,23.00
2022-10-06T13:01:04.160Z,22.10
2022-10-06T13:03:31.408Z,26.35
2022-10-06T13:06:04.984Z,30.70
2022-10-06T13:08:36.985Z,24.85
2022-10-06T13:11:12.574Z,29.63
2022-10-06T13:13:50.231Z,22.88
2022-10-06T13:16:40.920Z,25.25
2022-10-06T13:19:22.232Z,25.92
2022-10-06T13:21:48.870Z,22.55
2022-10-06T13:24:20.564Z,26.67
2022-10-06T13:26:48.242Z,20.13
2022-10-06T13:29:24.273Z,22.92
2022-10-06T13:31:53.433Z,24.77
2022-10-06T13:34:33.334Z,23.75
2022-10-06T13:37:01.322Z,24.17
2022-10-06T13:39:32.379Z,28.02
2022-10-06T13:42:02.575Z,26.92
2022-10-06T13:44:39.260Z,23.15
2022-10-06T13:47:14.812Z,24.83
2022-10-06T13:49:57.152Z,23.15
2022-10-06T13:52:33.160Z,22.30
2022-10-06T13:55:01.246Z,24.95
2022-10-06T13:57:46.392Z,24.70
2022-10-06T14:00:19.357Z,24.58
2022-10-06T14:02:48.858Z,25.92
2022-10-06T14:05:19.364Z,23.00
2022-10-06T14:07:47.105Z,25.20
2022-10-06T14:10:48.683Z,23.98
2022-10-06T14:13:23.599Z,26.27
2022-10-06T14:15:54.765Z,27.05
2022-10-06T14:18:33.806Z,18.27
2022-10-06T14:21:35.208Z,29.25
2022-10-06T14:24:07.834Z,27.33
2022-10-06T14:26:37.445Z,26.33
2022-10-06T14:29:04.511Z,18.90
2022-10-06T14:31:33.450Z,24.67
2022-10-06T14:34:01.300Z,18.75
2022-10-06T14:36:30.999Z,20.27
2022-10-06T14:38:59.155Z,23.40
2022-10-06T14:41:28.676Z,18.30
2022-10-06T14:43:56.307Z,22.73
2022-10-06T14:46:25.639Z,19.58
2022-10-06T14:48:52.798Z,15.93
2022-10-06T14:51:20.397Z,19.48
2022-10-06T14:53:55.214Z,21.73
2022-10-06T14:56:23.801Z,16.67
2022-10-06T14:58:52.502Z,18.02
2022-10-06T15:01:23.251Z,21.75
2022-10-06T15:03:55.068Z,18.20
2022-10-06T15:06:41.003Z,23.02
2022-10-06T15:09:08.368Z,17.70
2022-10-06T15:11:36.067Z,19.67
2022-10-06T15:14:03.864Z,19.75
2022-10-06T15:16:32.949Z,18.33
2022-10-06T15:19:01.179Z,18.73
2022-10-06T15:21:29.971Z,22.20
2022-10-06T15:24:03.264Z,21.35
2022-10-06T15:26:49.448Z,15.77
2022-10-06T15:29:17.022Z,19.25
2022-10-06T15:31:55.059Z,16.80
2022-10-06T15:34:26.928Z,15.15
2022-10-06T15:36:55.120Z,16.23
2022-10-06T15:39:24.510Z,16.05
2022-10-06T15:41:51.999Z,15.10
2022-10-06T15:44:21.989Z,17.77
2022-10-06T15:46:54.409Z,15.43
2022-10-06T15:49:26.081Z,15.85
2022-10-06T15:51:59.594Z,13.93
2022-10-06T15:54:28.895Z,14.25
2022-10-06T15:56:58.028Z,16.13
2022-10-06T15:59:27.569Z,16.02
2022-10-06T16:02:03.976Z,19.73
2022-10-06T16:04:54.130Z,21.70
2022-10-06T16:07:20.977Z,15.77
2022-10-06T16:09:51.881Z,16.98
2022-10-06T16:12:21.460Z,18.00
2022-10-06T16:14:48.893Z,16.70
2022-10-06T16:17:15.828Z,16.60
2022-10-06T16:19:42.792Z,18.42
2022-10-06T16:22:15.580Z,16.08
2022-10-06T16:24:42.196Z,21.33
2022-10-06T16:27:13.602Z,14.00
2022-10-06T16:29:40.610Z,16.35
2022-10-06T16:32:07.216Z,17.90
2022-10-06T16:34:33.918Z,20.73
2022-10-06T16:37:00.557Z,19.50
2022-10-06T16:39:27.157Z,18.60
2022-10-06T16:41:54.604Z,22.58
2022-10-06T16:44:21.353Z,17.83
2022-10-06T16:46:47.998Z,21.45
2022-10-06T16:49:14.801Z,18.52
2022-10-06T16:51:43.598Z,14.45
2022-10-06T16:54:12.261Z,14.93
2022-10-06T16:56:47.713Z,17.92
2022-10-06T16:59:16.697Z,18.55
2022-10-06T17:01:44.081Z,17.73
2022-10-06T17:04:16.436Z,15.32
2022-10-06T17:06:45.468Z,15.85
2022-10-06T17:09:14.519Z,19.35
2022-10-06T17:11:42.950Z,22.73
2022-10-06T17:14:09.940Z,20.25
2022-10-06T17:16:39.073Z,19.00
2022-10-06T17:19:06.582Z,21.95
2022-10-06T17:21:54.038Z,19.77
2022-10-06T17:24:20.816Z,22.67
2022-10-06T17:26:49.790Z,17.00
2022-10-06T17:29:21.866Z,19.17
2022-10-06T17:31:51.123Z,22.80
2022-10-06T17:34:21.873Z,17.48
2022-10-06T17:36:51.914Z,20.95
2022-10-06T17:39:21.451Z,21.95
2022-10-06T17:41:50.345Z,20.63
2022-10-06T17:44:22.758Z,21.92
2022-10-06T17:46:52.254Z,23.30
2022-10-06T17:49:21.515Z,24.98
2022-10-06T17:51:49.242Z,19.23
2022-10-06T17:54:19.848Z,19.03
2022-10-06T17:56:54.874Z,21.17
2022-10-06T17:59:31.031Z,19.42
2022-10-06T18:02:00.834Z,25.17
2022-10-06T18:04:27.575Z,27.50
2022-10-06T18:06:54.847Z,21.83
2022-10-06T18:09:22.369Z,29.85
2022-10-06T18:11:54.953Z,22.85
2022-10-06T18:14:28.238Z,25.10
2022-10-06T18:16:58.586Z,21.77
2022-10-06T18:19:30.690Z,25.52
2022-10-06T18:22:03.328Z,21.85
2022-10-06T18:24:31.367Z,17.67
2022-10-06T18:27:00.470Z,29.20
2022-10-06T18:29:33.265Z,22.40
2022-10-06T18:32:38.540Z,26.17
2022-10-06T18:37:35.173Z,18.35
2022-10-06T18:40:05.949Z,22.27
2022-10-06T18:42:33.208Z,19.50
2022-10-06T18:45:18.295Z,22.05
2022-10-06T18:48:03.922Z,24.52
2022-10-06T18:50:31.328Z,21.95
2022-10-06T18:52:58.015Z,23.67
2022-10-06T18:55:26.544Z,19.25
2022-10-06T18:57:53.364Z,27.20
2022-10-06T19:00:21.208Z,20.58
2022-10-06T19:02:52.167Z,26.70
2022-10-06T19:05:19.054Z,20.70
2022-10-06T19:07:46.259Z,21.77
2022-10-06T19:10:12.960Z,17.48
2022-10-06T19:12:39.734Z,20.55
2022-10-06T19:15:06.728Z,18.00
2022-10-06T19:17:33.925Z,22.88
2022-10-06T19:20:00.734Z,21.80
2022-10-06T19:22:27.458Z,22.60
2022-10-06T19:24:55.244Z,25.20
2022-10-06T19:27:26.287Z,25.43
2022-10-06T19:29:56.773Z,24.50
2022-10-06T19:32:27.500Z,21.98
2022-10-06T19:34:59.040Z,19.75
2022-10-06T19:37:30.376Z,21.60
2022-10-06T19:39:58.105Z,22.20
2022-10-06T19:42:43.900Z,23.80
2022-10-06T19:45:12.164Z,26.85
2022-10-06T19:47:39.400Z,23.80
2022-10-06T19:50:11.687Z,25.83
2022-10-06T19:52:40.321Z,20.90
2022-10-06T19:55:07.070Z,27.33
2022-10-06T19:57:34.141Z,24.77
2022-10-06T20:00:01.100Z,28.83
2022-10-06T20:02:28.986Z,23.38
2022-10-06T20:04:56.242Z,22.77
2022-10-06T20:07:25.626Z,19.83
2022-10-06T20:09:54.890Z,22.45
2022-10-06T20:12:24.951Z,21.45
2022-10-06T20:14:53.861Z,16.88
2022-10-06T20:17:21.003Z,21.35
2022-10-06T20:19:53.909Z,24.02
2022-10-06T20:22:24.602Z,20.15
2022-10-06T20:25:02.998Z,17.13
2022-10-06T20:27:29.634Z,19.63
2022-10-06T20:29:58.253Z,20.02
2022-10-06T20:35:06.706Z,15.43
2022-10-06T20:37:34.604Z,29.75
2022-10-06T20:40:20.499Z,17.90
2022-10-06T20:42:49.491Z,21.05
2022-10-06T20:45:16.278Z,20.52
2022-10-06T20:47:44.481Z,18.60
2022-10-06T20:50:20.340Z,20.08
2022-10-06T20:52:47.351Z,16.58
2022-10-06T20:55:14.842Z,18.15
2022-10-06T20:57:42.680Z,17.33
2022-10-06T21:00:10.267Z,19.73
2022-10-06T21:02:36.936Z,21.88
2022-10-06T21:05:05.596Z,16.42
2022-10-06T21:07:32.285Z,12.93
2022-10-06T21:09:58.830Z,13.13
2022-10-06T21:12:26.221Z,15.20
2022-10-06T21:14:52.902Z,16.48
2022-10-06T21:17:19.786Z,17.45
2022-10-06T21:19:46.784Z,17.60
2022-10-06T21:22:13.312Z,20.58
2022-10-06T21:24:39.964Z,19.98
2022-10-06T21:27:06.607Z,18.95
2022-10-06T21:29:33.260Z,18.90
2022-10-06T21:32:00.465Z,18.40
2022-10-06T21:34:27.048Z,17.85
2022-10-06T21:36:53.695Z,16.50
2022-10-06T21:39:20.593Z,19.52
2022-10-06T21:41:47.152Z,19.92
2022-10-06T21:44:18.335Z,22.75
2022-10-06T21:46:53.396Z,17.83
2022-10-06T21:49:25.086Z,22.50
2022-10-06T21:51:54.164Z,22.70
2022-10-06T21:54:22.448Z,23.88
2022-10-06T21:56:50.182Z,22.80
2022-10-06T21:59:18.274Z,21.40
2022-10-06T22:01:47.317Z,21.75
2022-10-06T22:04:15.372Z,22.23
2022-10-06T22:06:43.649Z,17.60
2022-10-06T22:09:14.881Z,21.75
2022-10-06T22:11:41.899Z,20.77
2022-10-06T22:14:12.091Z,29.52
2022-10-06T22:16:40.033Z,22.17
2022-10-06T22:19:09.814Z,20.50
2022-10-06T22:21:38.890Z,22.98
2022-10-06T22:24:09.315Z,18.98
2022-10-06T22:26:37.619Z,19.67
2022-10-06T22:29:06.072Z,22.10
2022-10-06T22:31:33.262Z,19.92
2022-10-06T22:34:04.741Z,21.92
2022-10-06T22:36:33.464Z,21.13
2022-10-06T22:41:27.199Z,16.60
2022-10-06T22:43:57.984Z,23.45
2022-10-06T22:46:29.155Z,21.10
2022-10-06T22:48:55.859Z,22.17
2022-10-06T22:51:22.966Z,19.27
2022-10-06T22:53:57.654Z,18.52
2022-10-06T22:56:26.048Z,15.02
2022-10-06T22:58:52.673Z,18.70
2022-10-06T23:01:19.695Z,19.45
2022-10-06T23:03:48.018Z,21.00
2022-10-06T23:06:16.571Z,26.13
2022-10-06T23:08:43.344Z,21.02
2022-10-06T23:11:16.953Z,22.52
2022-10-06T23:13:44.699Z,26.48
2022-10-06T23:16:16.471Z,24.40
2022-10-06T23:18:44.263Z,25.88
2022-10-06T23:21:21.834Z,28.17
2022-10-06T23:23:53.956Z,28.40
2022-10-06T23:26:21.998Z,24.27
2022-10-06T23:28:56.862Z,23.15
2022-10-06T23:31:24.669Z,21.55
2022-10-06T23:33:51.525Z,28.03
2022-10-06T23:36:18.458Z,23.27
2022-10-06T23:38:45.735Z,22.90
2022-10-06T23:41:12.901Z,24.02
2022-10-06T23:43:39.571Z,21.65
2022-10-06T23:46:06.281Z,18.38
2022-10-06T23:48:33.012Z,21.05
2022-10-06T23:51:08.607Z,20.15
2022-10-06T23:53:35.757Z,19.02
2022-10-06T23:56:02.405Z,19.65
2022-10-06T23:58:29.152Z,23.42
